sensor_id;sensor_type;location;lat;lon;timestamp;temperature;humidity
33825;DHT22;20127;48.962;8.342;2023-01-29T00:00:49;2.00;99.90
33825;DHT22;20127;48.962;8.342;2023-01-29T00:03:51;2.00;99.90
33825;DHT22;20127;48.962;8.342;2023-01-29T00:06:53;2.00;99.90
33825;DHT22;20127;48.962;8.342;2023-01-29T00:09:55;1.90;99.90
33825;DHT22;20127;48.962;8.342;2023-01-29T00:12:58;1.90;99.90
33825;DHT22;20127;48.962;8.342;2023-01-29T00:16:00;1.90;99.90
33825;DHT22;20127;48.962;8.342;2023-01-29T00:19:02;1.90;99.90
33825;DHT22;20127;48.962;8.342;2023-01-29T00:22:04;1.90;99.90
33825;DHT22;20127;48.962;8.342;2023-01-29T00:25:07;1.90;99.90
33825;DHT22;20127;48.962;8.342;2023-01-29T00:28:11;1.80;99.90
33825;DHT22;20127;48.962;8.342;2023-01-29T00:31:14;1.80;99.90
33825;DHT22;20127;48.962;8.342;2023-01-29T00:34:16;1.80;99.90
33825;DHT22;20127;48.962;8.342;2023-01-29T00:37:18;1.80;99.90
33825;DHT22;20127;48.962;8.342;2023-01-29T00:40:20;1.80;99.90
33825;DHT22;20127;48.962;8.342;2023-01-29T00:43:23;1.80;99.90
33825;DHT22;20127;48.962;8.342;2023-01-29T00:46:43;1.80;99.90
33825;DHT22;20127;48.962;8.342;2023-01-29T00:49:45;1.80;99.90
33825;DHT22;20127;48.962;8.342;2023-01-29T00:52:46;1.80;99.90
33825;DHT22;20127;48.962;8.342;2023-01-29T00:55:51;1.80;99.90
33825;DHT22;20127;48.962;8.342;2023-01-29T00:58:54;1.80;99.90
33825;DHT22;20127;48.962;8.342;2023-01-29T01:01:55;1.80;99.90
33825;DHT22;20127;48.962;8.342;2023-01-29T01:05:16;1.80;99.90
33825;DHT22;20127;48.962;8.342;2023-01-29T01:08:18;1.80;99.90
33825;DHT22;20127;48.962;8.342;2023-01-29T01:11:37;1.80;99.90
33825;DHT22;20127;48.962;8.342;2023-01-29T01:14:40;1.80;99.90
33825;DHT22;20127;48.962;8.342;2023-01-29T01:17:42;1.70;99.90
33825;DHT22;20127;48.962;8.342;2023-01-29T01:20:44;1.70;99.90
33825;DHT22;20127;48.962;8.342;2023-01-29T01:23:50;1.70;99.90
33825;DHT22;20127;48.962;8.342;2023-01-29T01:26:53;1.70;99.90
33825;DHT22;20127;48.962;8.342;2023-01-29T01:29:55;1.70;99.90
33825;DHT22;20127;48.962;8.342;2023-01-29T01:32:57;1.70;99.90
33825;DHT22;20127;48.962;8.342;2023-01-29T01:36:00;1.60;99.90
33825;DHT22;20127;48.962;8.342;2023-01-29T01:39:02;1.60;99.90
33825;DHT22;20127;48.962;8.342;2023-01-29T01:42:05;1.60;99.90
33825;DHT22;20127;48.962;8.342;2023-01-29T01:45:18;1.60;99.90
33825;DHT22;20127;48.962;8.342;2023-01-29T01:48:22;1.60;99.90
33825;DHT22;20127;48.962;8.342;2023-01-29T01:51:25;1.60;99.90
33825;DHT22;20127;48.962;8.342;2023-01-29T01:54:30;1.60;99.90
33825;DHT22;20127;48.962;8.342;2023-01-29T01:57:33;1.60;99.90
33825;DHT22;20127;48.962;8.342;2023-01-29T02:00:36;1.50;99.90
33825;DHT22;20127;48.962;8.342;2023-01-29T02:03:41;1.50;99.90
33825;DHT22;20127;48.962;8.342;2023-01-29T02:07:03;1.50;99.90
33825;DHT22;20127;48.962;8.342;2023-01-29T02:10:24;1.50;99.90
33825;DHT22;20127;48.962;8.342;2023-01-29T02:13:28;1.40;99.90
33825;DHT22;20127;48.962;8.342;2023-01-29T02:16:32;1.40;99.90
33825;DHT22;20127;48.962;8.342;2023-01-29T02:19:44;1.40;99.90
33825;DHT22;20127;48.962;8.342;2023-01-29T02:23:04;1.40;99.90
33825;DHT22;20127;48.962;8.342;2023-01-29T02:26:24;1.40;99.90
33825;DHT22;20127;48.962;8.342;2023-01-29T02:29:37;1.40;99.90
33825;DHT22;20127;48.962;8.342;2023-01-29T02:32:46;1.40;99.90
33825;DHT22;20127;48.962;8.342;2023-01-29T02:35:58;1.40;99.90
33825;DHT22;20127;48.962;8.342;2023-01-29T02:39:12;1.40;99.90
33825;DHT22;20127;48.962;8.342;2023-01-29T02:42:22;1.40;99.90
33825;DHT22;20127;48.962;8.342;2023-01-29T02:45:32;1.40;99.90
33825;DHT22;20127;48.962;8.342;2023-01-29T02:48:39;1.40;99.90
33825;DHT22;20127;48.962;8.342;2023-01-29T02:51:45;1.40;99.90
33825;DHT22;20127;48.962;8.342;2023-01-29T02:54:51;1.40;99.90
33825;DHT22;20127;48.962;8.342;2023-01-29T02:57:56;1.40;99.90
33825;DHT22;20127;48.962;8.342;2023-01-29T03:01:07;1.30;99.90
33825;DHT22;20127;48.962;8.342;2023-01-29T03:04:14;1.30;99.90
33825;DHT22;20127;48.962;8.342;2023-01-29T03:07:19;1.30;99.90
33825;DHT22;20127;48.962;8.342;2023-01-29T03:10:44;1.30;99.90
33825;DHT22;20127;48.962;8.342;2023-01-29T03:13:52;1.30;99.90
33825;DHT22;20127;48.962;8.342;2023-01-29T03:16:58;1.30;99.90
33825;DHT22;20127;48.962;8.342;2023-01-29T03:20:01;1.30;99.90
33825;DHT22;20127;48.962;8.342;2023-01-29T03:23:09;1.30;99.90
33825;DHT22;20127;48.962;8.342;2023-01-29T03:26:12;1.30;99.90
33825;DHT22;20127;48.962;8.342;2023-01-29T03:29:34;1.30;99.90
33825;DHT22;20127;48.962;8.342;2023-01-29T03:32:57;1.20;99.90
33825;DHT22;20127;48.962;8.342;2023-01-29T03:36:04;1.20;99.90
33825;DHT22;20127;48.962;8.342;2023-01-29T03:39:08;1.20;99.90
33825;DHT22;20127;48.962;8.342;2023-01-29T03:42:16;1.20;99.90
33825;DHT22;20127;48.962;8.342;2023-01-29T03:45:24;1.10;99.90
33825;DHT22;20127;48.962;8.342;2023-01-29T03:48:32;1.10;99.90
33825;DHT22;20127;48.962;8.342;2023-01-29T03:51:40;1.10;99.90
33825;DHT22;20127;48.962;8.342;2023-01-29T03:54:53;1.00;99.90
33825;DHT22;20127;48.962;8.342;2023-01-29T03:57:59;0.90;99.90
33825;DHT22;20127;48.962;8.342;2023-01-29T04:01:02;0.90;99.90
33825;DHT22;20127;48.962;8.342;2023-01-29T04:04:12;0.90;99.90
33825;DHT22;20127;48.962;8.342;2023-01-29T04:07:18;0.90;99.90
33825;DHT22;20127;48.962;8.342;2023-01-29T04:10:24;0.90;99.90
33825;DHT22;20127;48.962;8.342;2023-01-29T04:13:29;0.90;99.90
33825;DHT22;20127;48.962;8.342;2023-01-29T04:16:36;0.90;99.90
33825;DHT22;20127;48.962;8.342;2023-01-29T04:19:40;0.80;99.90
33825;DHT22;20127;48.962;8.342;2023-01-29T04:22:44;0.70;99.90
33825;DHT22;20127;48.962;8.342;2023-01-29T04:25:52;0.70;99.90
33825;DHT22;20127;48.962;8.342;2023-01-29T04:29:09;0.70;99.90
33825;DHT22;20127;48.962;8.342;2023-01-29T04:32:20;0.70;99.90
33825;DHT22;20127;48.962;8.342;2023-01-29T04:35:31;0.80;99.90
33825;DHT22;20127;48.962;8.342;2023-01-29T04:38:46;0.80;99.90
33825;DHT22;20127;48.962;8.342;2023-01-29T04:41:53;0.80;99.90
33825;DHT22;20127;48.962;8.342;2023-01-29T04:45:00;0.80;99.90
33825;DHT22;20127;48.962;8.342;2023-01-29T04:48:11;0.90;99.90
33825;DHT22;20127;48.962;8.342;2023-01-29T04:51:23;0.90;99.90
33825;DHT22;20127;48.962;8.342;2023-01-29T04:54:33;0.90;99.90
33825;DHT22;20127;48.962;8.342;2023-01-29T04:57:44;0.90;99.90
33825;DHT22;20127;48.962;8.342;2023-01-29T05:00:48;0.90;99.90
33825;DHT22;20127;48.962;8.342;2023-01-29T05:03:54;0.90;99.90
33825;DHT22;20127;48.962;8.342;2023-01-29T05:06:59;1.00;99.90
33825;DHT22;20127;48.962;8.342;2023-01-29T05:10:02;1.00;99.90
33825;DHT22;20127;48.962;8.342;2023-01-29T05:13:09;1.00;99.90
33825;DHT22;20127;48.962;8.342;2023-01-29T05:16:15;1.00;99.90
33825;DHT22;20127;48.962;8.342;2023-01-29T05:19:17;1.10;99.90
33825;DHT22;20127;48.962;8.342;2023-01-29T05:22:20;1.10;99.90
33825;DHT22;20127;48.962;8.342;2023-01-29T05:25:24;1.10;99.90
33825;DHT22;20127;48.962;8.342;2023-01-29T05:28:26;1.10;99.90
33825;DHT22;20127;48.962;8.342;2023-01-29T05:31:26;1.10;99.90
33825;DHT22;20127;48.962;8.342;2023-01-29T05:34:28;1.10;99.90
33825;DHT22;20127;48.962;8.342;2023-01-29T05:37:31;1.10;99.90
33825;DHT22;20127;48.962;8.342;2023-01-29T05:40:33;1.10;99.90
33825;DHT22;20127;48.962;8.342;2023-01-29T05:43:35;1.10;99.90
33825;DHT22;20127;48.962;8.342;2023-01-29T05:46:37;1.10;99.90
33825;DHT22;20127;48.962;8.342;2023-01-29T05:49:38;1.10;99.90
33825;DHT22;20127;48.962;8.342;2023-01-29T05:52:42;1.00;99.90
33825;DHT22;20127;48.962;8.342;2023-01-29T05:55:44;1.10;99.90
33825;DHT22;20127;48.962;8.342;2023-01-29T05:58:46;1.00;99.90
33825;DHT22;20127;48.962;8.342;2023-01-29T06:01:47;1.00;99.90
33825;DHT22;20127;48.962;8.342;2023-01-29T06:04:50;1.00;99.90
33825;DHT22;20127;48.962;8.342;2023-01-29T06:07:54;1.10;99.90
33825;DHT22;20127;48.962;8.342;2023-01-29T06:10:55;1.00;99.90
33825;DHT22;20127;48.962;8.342;2023-01-29T06:13:57;1.00;99.90
33825;DHT22;20127;48.962;8.342;2023-01-29T06:16:59;1.00;99.90
33825;DHT22;20127;48.962;8.342;2023-01-29T06:20:00;1.10;99.90
33825;DHT22;20127;48.962;8.342;2023-01-29T06:23:04;1.10;99.90
33825;DHT22;20127;48.962;8.342;2023-01-29T06:26:06;1.10;99.90
33825;DHT22;20127;48.962;8.342;2023-01-29T06:29:09;1.10;99.90
33825;DHT22;20127;48.962;8.342;2023-01-29T06:32:10;1.10;99.90
33825;DHT22;20127;48.962;8.342;2023-01-29T06:35:12;1.10;99.90
33825;DHT22;20127;48.962;8.342;2023-01-29T06:38:15;1.10;99.90
33825;DHT22;20127;48.962;8.342;2023-01-29T06:41:18;1.10;99.90
33825;DHT22;20127;48.962;8.342;2023-01-29T06:44:22;1.20;99.90
33825;DHT22;20127;48.962;8.342;2023-01-29T06:47:25;1.10;99.90
33825;DHT22;20127;48.962;8.342;2023-01-29T06:50:27;1.20;99.90
33825;DHT22;20127;48.962;8.342;2023-01-29T06:53:31;1.20;99.90
33825;DHT22;20127;48.962;8.342;2023-01-29T06:56:33;1.20;99.90
33825;DHT22;20127;48.962;8.342;2023-01-29T06:59:35;1.20;99.90
33825;DHT22;20127;48.962;8.342;2023-01-29T07:02:36;1.20;99.90
33825;DHT22;20127;48.962;8.342;2023-01-29T07:05:38;1.20;99.90
33825;DHT22;20127;48.962;8.342;2023-01-29T07:08:41;1.20;99.90
33825;DHT22;20127;48.962;8.342;2023-01-29T07:11:43;1.20;99.90
33825;DHT22;20127;48.962;8.342;2023-01-29T07:14:45;1.20;99.90
33825;DHT22;20127;48.962;8.342;2023-01-29T07:17:57;1.20;99.90
33825;DHT22;20127;48.962;8.342;2023-01-29T07:21:03;1.20;99.90
33825;DHT22;20127;48.962;8.342;2023-01-29T07:24:07;1.20;99.90
33825;DHT22;20127;48.962;8.342;2023-01-29T07:27:09;1.30;99.90
33825;DHT22;20127;48.962;8.342;2023-01-29T07:30:12;1.30;99.90
33825;DHT22;20127;48.962;8.342;2023-01-29T07:33:13;1.30;99.90
33825;DHT22;20127;48.962;8.342;2023-01-29T07:36:15;1.30;99.90
33825;DHT22;20127;48.962;8.342;2023-01-29T07:39:18;1.30;99.90
33825;DHT22;20127;48.962;8.342;2023-01-29T07:42:20;1.20;99.90
33825;DHT22;20127;48.962;8.342;2023-01-29T07:45:21;1.10;99.90
33825;DHT22;20127;48.962;8.342;2023-01-29T07:48:23;1.20;99.90
33825;DHT22;20127;48.962;8.342;2023-01-29T07:51:25;1.20;99.90
33825;DHT22;20127;48.962;8.342;2023-01-29T07:54:28;1.30;99.90
33825;DHT22;20127;48.962;8.342;2023-01-29T07:57:29;1.40;99.90
33825;DHT22;20127;48.962;8.342;2023-01-29T08:00:31;1.40;99.90
33825;DHT22;20127;48.962;8.342;2023-01-29T08:03:33;1.50;99.90
33825;DHT22;20127;48.962;8.342;2023-01-29T08:06:35;1.60;99.90
33825;DHT22;20127;48.962;8.342;2023-01-29T08:09:38;1.60;99.90
33825;DHT22;20127;48.962;8.342;2023-01-29T08:12:39;1.60;99.90
33825;DHT22;20127;48.962;8.342;2023-01-29T08:15:42;1.70;99.90
33825;DHT22;20127;48.962;8.342;2023-01-29T08:18:44;1.70;99.90
33825;DHT22;20127;48.962;8.342;2023-01-29T08:21:47;1.80;99.90
33825;DHT22;20127;48.962;8.342;2023-01-29T08:24:50;1.80;99.90
33825;DHT22;20127;48.962;8.342;2023-01-29T08:27:52;1.90;99.90
33825;DHT22;20127;48.962;8.342;2023-01-29T08:30:54;1.90;99.90
33825;DHT22;20127;48.962;8.342;2023-01-29T08:33:55;2.00;99.90
33825;DHT22;20127;48.962;8.342;2023-01-29T08:36:58;2.30;99.90
33825;DHT22;20127;48.962;8.342;2023-01-29T08:40:01;2.40;99.90
33825;DHT22;20127;48.962;8.342;2023-01-29T08:43:04;2.40;99.90
33825;DHT22;20127;48.962;8.342;2023-01-29T08:46:07;2.40;99.90
33825;DHT22;20127;48.962;8.342;2023-01-29T08:49:08;2.50;99.90
33825;DHT22;20127;48.962;8.342;2023-01-29T08:52:10;2.60;99.90
33825;DHT22;20127;48.962;8.342;2023-01-29T08:55:13;2.60;99.90
33825;DHT22;20127;48.962;8.342;2023-01-29T08:58:15;2.70;99.90
33825;DHT22;20127;48.962;8.342;2023-01-29T09:01:17;2.80;99.90
33825;DHT22;20127;48.962;8.342;2023-01-29T09:04:18;3.00;99.90
33825;DHT22;20127;48.962;8.342;2023-01-29T09:07:20;3.10;99.90
33825;DHT22;20127;48.962;8.342;2023-01-29T09:10:23;3.20;99.90
33825;DHT22;20127;48.962;8.342;2023-01-29T09:13:25;3.30;99.90
33825;DHT22;20127;48.962;8.342;2023-01-29T09:16:27;3.40;99.90
33825;DHT22;20127;48.962;8.342;2023-01-29T09:19:28;3.50;99.90
33825;DHT22;20127;48.962;8.342;2023-01-29T09:22:30;3.60;99.90
33825;DHT22;20127;48.962;8.342;2023-01-29T09:25:34;3.80;99.90
33825;DHT22;20127;48.962;8.342;2023-01-29T09:28:35;3.90;99.90
33825;DHT22;20127;48.962;8.342;2023-01-29T09:31:37;4.00;99.90
33825;DHT22;20127;48.962;8.342;2023-01-29T09:34:39;4.10;99.90
33825;DHT22;20127;48.962;8.342;2023-01-29T09:37:40;4.30;99.90
33825;DHT22;20127;48.962;8.342;2023-01-29T09:40:51;4.50;99.90
33825;DHT22;20127;48.962;8.342;2023-01-29T09:43:58;4.60;99.90
33825;DHT22;20127;48.962;8.342;2023-01-29T09:47:01;4.70;99.90
33825;DHT22;20127;48.962;8.342;2023-01-29T09:50:08;4.80;99.90
33825;DHT22;20127;48.962;8.342;2023-01-29T09:53:17;5.00;99.90
33825;DHT22;20127;48.962;8.342;2023-01-29T09:56:22;5.30;99.90
33825;DHT22;20127;48.962;8.342;2023-01-29T09:59:28;5.60;99.90
33825;DHT22;20127;48.962;8.342;2023-01-29T10:02:48;5.90;99.90
33825;DHT22;20127;48.962;8.342;2023-01-29T10:06:10;6.10;99.90
33825;DHT22;20127;48.962;8.342;2023-01-29T10:09:31;6.30;99.90
33825;DHT22;20127;48.962;8.342;2023-01-29T10:12:55;6.40;99.90
33825;DHT22;20127;48.962;8.342;2023-01-29T10:16:22;6.50;99.90
33825;DHT22;20127;48.962;8.342;2023-01-29T10:19:51;6.50;99.90
33825;DHT22;20127;48.962;8.342;2023-01-29T10:23:09;6.40;99.90
33825;DHT22;20127;48.962;8.342;2023-01-29T10:26:15;6.40;99.90
33825;DHT22;20127;48.962;8.342;2023-01-29T10:29:20;6.40;99.90
33825;DHT22;20127;48.962;8.342;2023-01-29T10:32:24;6.40;99.90
33825;DHT22;20127;48.962;8.342;2023-01-29T10:35:30;6.40;99.90
33825;DHT22;20127;48.962;8.342;2023-01-29T10:38:38;6.30;99.90
33825;DHT22;20127;48.962;8.342;2023-01-29T10:45:18;6.30;99.90
33825;DHT22;20127;48.962;8.342;2023-01-29T10:48:38;6.40;99.90
33825;DHT22;20127;48.962;8.342;2023-01-29T10:51:57;6.40;99.90
33825;DHT22;20127;48.962;8.342;2023-01-29T10:55:17;6.50;99.90
33825;DHT22;20127;48.962;8.342;2023-01-29T10:58:29;6.50;99.90
33825;DHT22;20127;48.962;8.342;2023-01-29T11:01:33;6.50;99.90
33825;DHT22;20127;48.962;8.342;2023-01-29T11:04:36;6.60;99.90
33825;DHT22;20127;48.962;8.342;2023-01-29T11:07:38;6.80;99.90
33825;DHT22;20127;48.962;8.342;2023-01-29T11:10:43;7.10;99.90
33825;DHT22;20127;48.962;8.342;2023-01-29T11:13:53;7.10;99.90
33825;DHT22;20127;48.962;8.342;2023-01-29T11:16:58;6.90;99.90
33825;DHT22;20127;48.962;8.342;2023-01-29T11:19:59;6.70;99.90
33825;DHT22;20127;48.962;8.342;2023-01-29T11:23:01;6.70;99.90
33825;DHT22;20127;48.962;8.342;2023-01-29T11:26:03;6.50;99.90
33825;DHT22;20127;48.962;8.342;2023-01-29T11:29:31;6.50;99.90
33825;DHT22;20127;48.962;8.342;2023-01-29T11:32:35;6.50;99.90
33825;DHT22;20127;48.962;8.342;2023-01-29T11:35:37;6.50;99.90
33825;DHT22;20127;48.962;8.342;2023-01-29T11:38:39;6.80;99.90
33825;DHT22;20127;48.962;8.342;2023-01-29T11:41:47;7.00;99.90
33825;DHT22;20127;48.962;8.342;2023-01-29T11:44:49;7.10;99.90
33825;DHT22;20127;48.962;8.342;2023-01-29T11:47:53;7.20;99.90
33825;DHT22;20127;48.962;8.342;2023-01-29T11:50:58;7.60;99.90
33825;DHT22;20127;48.962;8.342;2023-01-29T11:54:01;7.90;99.80
33825;DHT22;20127;48.962;8.342;2023-01-29T11:57:04;8.10;99.20
33825;DHT22;20127;48.962;8.342;2023-01-29T12:00:19;8.20;98.90
33825;DHT22;20127;48.962;8.342;2023-01-29T12:03:31;8.30;98.50
33825;DHT22;20127;48.962;8.342;2023-01-29T12:06:36;8.50;98.30
33825;DHT22;20127;48.962;8.342;2023-01-29T12:09:48;8.60;97.90
33825;DHT22;20127;48.962;8.342;2023-01-29T12:12:50;8.50;97.60
33825;DHT22;20127;48.962;8.342;2023-01-29T12:16:10;8.80;98.00
33825;DHT22;20127;48.962;8.342;2023-01-29T12:19:22;9.30;97.10
33825;DHT22;20127;48.962;8.342;2023-01-29T12:22:35;9.80;96.80
33825;DHT22;20127;48.962;8.342;2023-01-29T12:25:43;10.30;95.70
33825;DHT22;20127;48.962;8.342;2023-01-29T12:28:54;10.20;95.50
33825;DHT22;20127;48.962;8.342;2023-01-29T12:32:08;10.60;94.40
33825;DHT22;20127;48.962;8.342;2023-01-29T12:35:18;10.40;93.90
33825;DHT22;20127;48.962;8.342;2023-01-29T12:38:22;10.60;93.60
33825;DHT22;20127;48.962;8.342;2023-01-29T12:41:29;10.20;92.80
33825;DHT22;20127;48.962;8.342;2023-01-29T12:44:33;10.10;93.00
33825;DHT22;20127;48.962;8.342;2023-01-29T12:47:38;10.50;92.70
33825;DHT22;20127;48.962;8.342;2023-01-29T12:50:44;10.00;92.00
33825;DHT22;20127;48.962;8.342;2023-01-29T12:53:49;9.70;92.10
33825;DHT22;20127;48.962;8.342;2023-01-29T12:56:55;10.00;92.30
33825;DHT22;20127;48.962;8.342;2023-01-29T13:00:02;10.50;91.60
33825;DHT22;20127;48.962;8.342;2023-01-29T13:03:13;10.70;91.10
33825;DHT22;20127;48.962;8.342;2023-01-29T13:06:22;10.80;90.80
33825;DHT22;20127;48.962;8.342;2023-01-29T13:09:29;11.10;90.60
33825;DHT22;20127;48.962;8.342;2023-01-29T13:12:33;11.30;90.40
33825;DHT22;20127;48.962;8.342;2023-01-29T13:15:37;11.70;89.80
33825;DHT22;20127;48.962;8.342;2023-01-29T13:18:42;11.90;88.20
33825;DHT22;20127;48.962;8.342;2023-01-29T13:21:47;11.50;87.00
33825;DHT22;20127;48.962;8.342;2023-01-29T13:24:49;11.50;86.50
33825;DHT22;20127;48.962;8.342;2023-01-29T13:27:51;11.40;85.40
33825;DHT22;20127;48.962;8.342;2023-01-29T13:31:17;11.00;85.60
33825;DHT22;20127;48.962;8.342;2023-01-29T13:34:22;10.80;84.90
33825;DHT22;20127;48.962;8.342;2023-01-29T13:37:32;10.70;85.80
33825;DHT22;20127;48.962;8.342;2023-01-29T13:40:34;10.80;85.40
33825;DHT22;20127;48.962;8.342;2023-01-29T13:43:39;10.70;85.00
33825;DHT22;20127;48.962;8.342;2023-01-29T13:46:47;10.60;84.40
33825;DHT22;20127;48.962;8.342;2023-01-29T13:49:55;10.50;84.40
33825;DHT22;20127;48.962;8.342;2023-01-29T13:53:00;10.20;83.60
33825;DHT22;20127;48.962;8.342;2023-01-29T13:56:40;9.90;84.30
33825;DHT22;20127;48.962;8.342;2023-01-29T13:59:50;9.80;84.00
33825;DHT22;20127;48.962;8.342;2023-01-29T14:06:46;9.30;84.40
33825;DHT22;20127;48.962;8.342;2023-01-29T14:10:07;8.90;85.10
33825;DHT22;20127;48.962;8.342;2023-01-29T14:13:26;8.60;85.20
33825;DHT22;20127;48.962;8.342;2023-01-29T14:16:34;8.40;85.70
33825;DHT22;20127;48.962;8.342;2023-01-29T14:19:36;8.20;85.40
33825;DHT22;20127;48.962;8.342;2023-01-29T14:22:38;8.10;85.90
33825;DHT22;20127;48.962;8.342;2023-01-29T14:25:42;8.40;86.40
33825;DHT22;20127;48.962;8.342;2023-01-29T14:28:52;8.70;85.90
33825;DHT22;20127;48.962;8.342;2023-01-29T14:31:58;9.00;85.30
33825;DHT22;20127;48.962;8.342;2023-01-29T14:35:02;9.30;85.30
33825;DHT22;20127;48.962;8.342;2023-01-29T14:38:05;9.60;85.30
33825;DHT22;20127;48.962;8.342;2023-01-29T14:41:23;9.20;84.10
33825;DHT22;20127;48.962;8.342;2023-01-29T14:48:35;8.90;85.20
33825;DHT22;20127;48.962;8.342;2023-01-29T14:51:41;8.50;84.70
33825;DHT22;20127;48.962;8.342;2023-01-29T14:54:46;8.30;85.80
33825;DHT22;20127;48.962;8.342;2023-01-29T14:57:50;8.00;85.80
33825;DHT22;20127;48.962;8.342;2023-01-29T15:00:54;7.60;86.30
33825;DHT22;20127;48.962;8.342;2023-01-29T15:04:01;7.50;86.80
33825;DHT22;20127;48.962;8.342;2023-01-29T15:07:09;7.60;87.30
33825;DHT22;20127;48.962;8.342;2023-01-29T15:10:17;7.70;87.20
33825;DHT22;20127;48.962;8.342;2023-01-29T15:13:28;7.60;87.00
33825;DHT22;20127;48.962;8.342;2023-01-29T15:16:43;7.60;87.30
33825;DHT22;20127;48.962;8.342;2023-01-29T15:19:47;7.50;87.80
33825;DHT22;20127;48.962;8.342;2023-01-29T15:22:49;7.40;87.90
33825;DHT22;20127;48.962;8.342;2023-01-29T15:25:52;7.00;87.80
33825;DHT22;20127;48.962;8.342;2023-01-29T15:28:58;6.80;88.60
33825;DHT22;20127;48.962;8.342;2023-01-29T15:32:00;7.00;89.20
33825;DHT22;20127;48.962;8.342;2023-01-29T15:35:09;6.90;88.90
33825;DHT22;20127;48.962;8.342;2023-01-29T15:38:16;6.90;88.50
33825;DHT22;20127;48.962;8.342;2023-01-29T15:41:20;6.40;88.80
33825;DHT22;20127;48.962;8.342;2023-01-29T15:44:24;6.00;89.80
33825;DHT22;20127;48.962;8.342;2023-01-29T15:47:30;5.70;90.30
33825;DHT22;20127;48.962;8.342;2023-01-29T15:50:34;5.50;90.70
33825;DHT22;20127;48.962;8.342;2023-01-29T15:53:41;5.10;90.80
33825;DHT22;20127;48.962;8.342;2023-01-29T15:56:45;4.80;91.20
33825;DHT22;20127;48.962;8.342;2023-01-29T15:59:51;4.60;91.40
33825;DHT22;20127;48.962;8.342;2023-01-29T16:02:54;4.40;91.70
33825;DHT22;20127;48.962;8.342;2023-01-29T16:05:56;4.20;91.80
33825;DHT22;20127;48.962;8.342;2023-01-29T16:08:58;4.00;92.10
33825;DHT22;20127;48.962;8.342;2023-01-29T16:12:00;3.80;92.30
33825;DHT22;20127;48.962;8.342;2023-01-29T16:15:04;3.60;92.50
33825;DHT22;20127;48.962;8.342;2023-01-29T16:18:19;3.50;92.70
33825;DHT22;20127;48.962;8.342;2023-01-29T16:21:25;3.30;93.00
33825;DHT22;20127;48.962;8.342;2023-01-29T16:24:31;3.10;93.10
33825;DHT22;20127;48.962;8.342;2023-01-29T16:27:33;3.00;93.30
33825;DHT22;20127;48.962;8.342;2023-01-29T16:30:37;2.80;93.50
33825;DHT22;20127;48.962;8.342;2023-01-29T16:33:41;2.70;93.70
33825;DHT22;20127;48.962;8.342;2023-01-29T16:36:45;2.60;94.20
33825;DHT22;20127;48.962;8.342;2023-01-29T16:39:49;2.50;94.20
33825;DHT22;20127;48.962;8.342;2023-01-29T16:43:05;2.40;94.40
33825;DHT22;20127;48.962;8.342;2023-01-29T16:46:34;2.30;94.60
33825;DHT22;20127;48.962;8.342;2023-01-29T16:49:48;2.10;94.70
33825;DHT22;20127;48.962;8.342;2023-01-29T16:52:55;2.00;94.90
33825;DHT22;20127;48.962;8.342;2023-01-29T16:56:01;1.90;95.10
33825;DHT22;20127;48.962;8.342;2023-01-29T16:59:05;1.70;95.30
33825;DHT22;20127;48.962;8.342;2023-01-29T17:02:20;1.60;95.50
33825;DHT22;20127;48.962;8.342;2023-01-29T17:05:25;1.50;95.80
33825;DHT22;20127;48.962;8.342;2023-01-29T17:08:30;1.40;95.90
33825;DHT22;20127;48.962;8.342;2023-01-29T17:11:35;1.30;96.10
33825;DHT22;20127;48.962;8.342;2023-01-29T17:14:37;1.30;96.50
33825;DHT22;20127;48.962;8.342;2023-01-29T17:17:44;1.20;96.60
33825;DHT22;20127;48.962;8.342;2023-01-29T17:20:49;1.20;96.90
33825;DHT22;20127;48.962;8.342;2023-01-29T17:23:52;1.10;97.20
33825;DHT22;20127;48.962;8.342;2023-01-29T17:26:54;1.50;97.80
33825;DHT22;20127;48.962;8.342;2023-01-29T17:29:57;1.50;98.00
33825;DHT22;20127;48.962;8.342;2023-01-29T17:33:00;1.40;98.40
33825;DHT22;20127;48.962;8.342;2023-01-29T17:36:03;1.30;98.90
33825;DHT22;20127;48.962;8.342;2023-01-29T17:39:11;1.30;99.20
33825;DHT22;20127;48.962;8.342;2023-01-29T17:42:15;1.30;99.50
33825;DHT22;20127;48.962;8.342;2023-01-29T17:45:17;1.20;99.50
33825;DHT22;20127;48.962;8.342;2023-01-29T17:48:22;1.10;99.80
33825;DHT22;20127;48.962;8.342;2023-01-29T17:51:24;1.00;99.90
33825;DHT22;20127;48.962;8.342;2023-01-29T17:54:25;0.90;99.90
33825;DHT22;20127;48.962;8.342;2023-01-29T17:57:27;0.90;99.90
33825;DHT22;20127;48.962;8.342;2023-01-29T18:00:29;0.80;99.90
33825;DHT22;20127;48.962;8.342;2023-01-29T18:03:32;0.80;99.90
33825;DHT22;20127;48.962;8.342;2023-01-29T18:06:34;0.80;99.90
33825;DHT22;20127;48.962;8.342;2023-01-29T18:09:36;0.80;99.90
33825;DHT22;20127;48.962;8.342;2023-01-29T18:12:37;0.80;99.90
33825;DHT22;20127;48.962;8.342;2023-01-29T18:15:39;0.70;99.90
33825;DHT22;20127;48.962;8.342;2023-01-29T18:18:42;0.70;99.90
33825;DHT22;20127;48.962;8.342;2023-01-29T18:21:44;0.70;99.90
33825;DHT22;20127;48.962;8.342;2023-01-29T18:24:45;0.80;99.90
33825;DHT22;20127;48.962;8.342;2023-01-29T18:27:47;0.70;99.90
33825;DHT22;20127;48.962;8.342;2023-01-29T18:30:49;0.60;99.90
33825;DHT22;20127;48.962;8.342;2023-01-29T18:33:52;0.60;99.90
33825;DHT22;20127;48.962;8.342;2023-01-29T18:36:54;0.50;99.90
33825;DHT22;20127;48.962;8.342;2023-01-29T18:39:56;0.40;99.90
33825;DHT22;20127;48.962;8.342;2023-01-29T18:42:57;0.40;99.90
33825;DHT22;20127;48.962;8.342;2023-01-29T18:46:00;0.40;99.90
33825;DHT22;20127;48.962;8.342;2023-01-29T18:49:06;0.40;99.90
33825;DHT22;20127;48.962;8.342;2023-01-29T18:52:07;0.40;99.90
33825;DHT22;20127;48.962;8.342;2023-01-29T18:55:09;0.30;99.90
33825;DHT22;20127;48.962;8.342;2023-01-29T18:58:11;0.30;99.90
33825;DHT22;20127;48.962;8.342;2023-01-29T19:01:13;0.30;99.90
33825;DHT22;20127;48.962;8.342;2023-01-29T19:04:16;0.60;99.90
33825;DHT22;20127;48.962;8.342;2023-01-29T19:07:18;0.80;99.90
33825;DHT22;20127;48.962;8.342;2023-01-29T19:10:20;0.80;99.90
33825;DHT22;20127;48.962;8.342;2023-01-29T19:13:22;0.70;99.90
33825;DHT22;20127;48.962;8.342;2023-01-29T19:16:24;0.60;99.90
33825;DHT22;20127;48.962;8.342;2023-01-29T19:19:27;0.40;99.90
33825;DHT22;20127;48.962;8.342;2023-01-29T19:22:29;0.30;99.90
33825;DHT22;20127;48.962;8.342;2023-01-29T19:25:35;0.30;99.90
33825;DHT22;20127;48.962;8.342;2023-01-29T19:28:37;0.20;99.90
33825;DHT22;20127;48.962;8.342;2023-01-29T19:31:38;0.20;99.90
33825;DHT22;20127;48.962;8.342;2023-01-29T19:34:41;0.10;99.90
33825;DHT22;20127;48.962;8.342;2023-01-29T19:37:43;0.10;99.90
33825;DHT22;20127;48.962;8.342;2023-01-29T19:40:46;0.00;99.90
33825;DHT22;20127;48.962;8.342;2023-01-29T19:43:47;0.10;99.90
33825;DHT22;20127;48.962;8.342;2023-01-29T19:46:49;0.00;99.90
33825;DHT22;20127;48.962;8.342;2023-01-29T19:49:52;0.00;99.90
33825;DHT22;20127;48.962;8.342;2023-01-29T19:52:54;0.00;99.90
33825;DHT22;20127;48.962;8.342;2023-01-29T19:55:57;0.00;99.90
33825;DHT22;20127;48.962;8.342;2023-01-29T19:58:59;0.00;99.90
33825;DHT22;20127;48.962;8.342;2023-01-29T20:02:01;0.00;99.90